Curtice, Ohio
Current Conditions -  °F | °C
As of 11:53 AM on Thursday 23 Oct 2014 (Local Time) from KTDZ Reporting Station
Clear Clear  
Wind Chill: 51°   Ceiling: Unl
Heat Index: 51°   Visibility: 10mi
Dew Point: 39°   Wind: 5mph
Humidity: 63%   Direction: 320°NW
Pressure: 30.26"   Gusts: NA
Location:  41.62°N, 83.37°W
Report Text: KTDZ 231553Z AUTO 32004KT 10SM CLR 11/04 A3026 RMK AO2 SLP249 T01060039 TSNO
Loading
Personal Weather Stations






























Interactive Weather Map
Tropical Storm Tracking
New forecast layout! Learn more

10-Day Weather Forecast

Advertisements
Track Severe Weather on mobile